createdAt,value
2017-05-09T00:00:13.466Z,0
2017-05-09T00:01:23.818Z,0
2017-05-09T00:02:34.154Z,0
2017-05-09T00:03:44.512Z,0
2017-05-09T00:04:54.850Z,0
2017-05-09T00:06:05.192Z,0
2017-05-09T00:07:15.586Z,0
2017-05-09T00:08:25.934Z,0
2017-05-09T00:09:36.306Z,0
2017-05-09T00:10:46.651Z,0
2017-05-09T00:11:57.002Z,0
2017-05-09T00:13:07.384Z,0
2017-05-09T00:14:17.424Z,0
2017-05-09T00:15:27.448Z,0
2017-05-09T00:16:37.475Z,0
2017-05-09T00:17:47.826Z,0
2017-05-09T00:18:58.189Z,0
2017-05-09T00:20:08.220Z,0
2017-05-09T00:21:18.256Z,0
2017-05-09T00:22:28.618Z,0
2017-05-09T00:23:38.654Z,0
2017-05-09T00:24:49.001Z,0
2017-05-09T00:25:59.064Z,0
2017-05-09T00:27:09.411Z,0
2017-05-09T00:28:19.787Z,0
2017-05-09T00:29:29.526Z,0
2017-05-09T00:30:39.617Z,0
2017-05-09T00:31:49.962Z,0
2017-05-09T00:33:00.363Z,0
2017-05-09T00:34:10.712Z,0
2017-05-09T00:35:21.066Z,0
2017-05-09T00:36:31.140Z,0
2017-05-09T00:37:41.730Z,0
2017-05-09T00:38:52.078Z,0
2017-05-09T00:40:01.797Z,0
2017-05-09T00:41:12.385Z,0
2017-05-09T00:42:22.735Z,0
2017-05-09T00:43:33.066Z,0
2017-05-09T00:44:43.408Z,0
2017-05-09T00:45:53.771Z,0
2017-05-09T00:47:03.819Z,0
2017-05-09T00:48:14.166Z,0
2017-05-09T00:49:24.546Z,0
2017-05-09T00:50:34.574Z,0
2017-05-09T00:51:44.611Z,0
2017-05-09T00:52:55.027Z,0
2017-05-09T00:54:05.375Z,0
2017-05-09T00:55:15.390Z,0
2017-05-09T00:56:25.419Z,0
2017-05-09T00:57:35.760Z,0
2017-05-09T00:58:45.797Z,0
2017-05-09T00:59:55.845Z,0
2017-05-09T01:01:05.898Z,0
2017-05-09T01:02:16.245Z,0
2017-05-09T01:03:26.278Z,0
2017-05-09T01:04:36.311Z,0
2017-05-09T01:05:46.665Z,0
2017-05-09T01:06:56.698Z,0
2017-05-09T01:08:07.036Z,0
2017-05-09T01:09:17.386Z,0
2017-05-09T01:10:27.730Z,0
2017-05-09T01:11:38.075Z,0
2017-05-09T01:12:48.412Z,0
2017-05-09T01:13:58.788Z,0
2017-05-09T01:15:08.822Z,0
2017-05-09T01:16:18.842Z,0
2017-05-09T01:17:29.171Z,0
2017-05-09T01:18:39.538Z,0
2017-05-09T01:19:49.888Z,0
2017-05-09T01:20:59.906Z,0
2017-05-09T01:22:10.248Z,0
2017-05-09T01:23:20.598Z,0
2017-05-09T01:24:30.969Z,0
2017-05-09T01:25:40.999Z,0
2017-05-09T01:26:51.039Z,0
2017-05-09T01:28:01.391Z,0
2017-05-09T01:29:11.794Z,0
2017-05-09T01:30:22.129Z,0
2017-05-09T01:31:32.197Z,0
2017-05-09T01:32:42.540Z,0
2017-05-09T01:33:52.893Z,0
2017-05-09T01:35:02.924Z,0
2017-05-09T01:36:12.956Z,0
2017-05-09T01:37:23.302Z,0
2017-05-09T01:38:33.644Z,0
2017-05-09T01:39:43.995Z,0
2017-05-09T01:40:54.338Z,0
2017-05-09T01:42:04.358Z,0
2017-05-09T01:43:14.733Z,0
2017-05-09T01:44:25.075Z,0
2017-05-09T01:45:35.427Z,0
2017-05-09T01:46:45.771Z,0
2017-05-09T01:47:56.163Z,0
2017-05-09T01:49:06.203Z,0
2017-05-09T01:50:16.257Z,0
2017-05-09T01:51:26.605Z,0
2017-05-09T01:52:36.317Z,0
2017-05-09T01:53:46.349Z,0
2017-05-09T01:54:56.708Z,0
2017-05-09T01:56:07.052Z,0
2017-05-09T01:57:17.412Z,0
2017-05-09T01:58:27.769Z,0
2017-05-09T01:59:37.805Z,0
2017-05-09T02:00:48.143Z,0
2017-05-09T02:01:58.499Z,0
2017-05-09T02:03:08.855Z,0
2017-05-09T02:04:19.192Z,0
2017-05-09T02:05:29.527Z,0
2017-05-09T02:06:39.881Z,0
2017-05-09T02:07:49.913Z,0
2017-05-09T02:09:00.260Z,0
2017-05-09T02:10:10.609Z,0
2017-05-09T02:11:20.958Z,0
2017-05-09T02:12:30.714Z,0
2017-05-09T02:13:40.776Z,0
2017-05-09T02:14:51.124Z,0
2017-05-09T02:16:01.205Z,0
2017-05-09T02:17:11.563Z,0
2017-05-09T02:18:21.964Z,0
2017-05-09T02:19:32.025Z,0
2017-05-09T02:20:42.381Z,0
2017-05-09T02:21:52.780Z,0
2017-05-09T02:23:03.162Z,0
2017-05-09T02:24:13.538Z,0
2017-05-09T02:25:23.881Z,0
2017-05-09T02:26:34.238Z,0
2017-05-09T02:27:44.644Z,0
2017-05-09T02:28:54.684Z,0
2017-05-09T02:30:05.040Z,0
2017-05-09T02:31:15.075Z,0
2017-05-09T02:32:25.440Z,0
2017-05-09T02:33:35.778Z,0
2017-05-09T02:34:46.116Z,0
2017-05-09T02:35:56.145Z,0
2017-05-09T02:37:06.496Z,0
2017-05-09T02:38:16.851Z,0
2017-05-09T02:39:26.572Z,0
2017-05-09T02:40:36.641Z,0
2017-05-09T02:41:46.975Z,0
2017-05-09T02:42:57.014Z,0
2017-05-09T02:44:07.342Z,0
2017-05-09T02:45:17.425Z,0
2017-05-09T02:46:27.781Z,0
2017-05-09T02:47:38.136Z,0
2017-05-09T02:48:48.164Z,0
2017-05-09T02:49:58.514Z,0
2017-05-09T02:51:08.861Z,0
2017-05-09T02:52:19.240Z,0
2017-05-09T02:53:29.583Z,0
2017-05-09T02:54:39.614Z,0
2017-05-09T02:55:49.659Z,0
2017-05-09T02:56:59.683Z,0
2017-05-09T02:58:10.034Z,0
2017-05-09T02:59:20.099Z,0
2017-05-09T03:00:30.455Z,0
2017-05-09T03:01:40.170Z,0
2017-05-09T03:32:55.415Z,0
2017-05-09T03:34:05.761Z,0
2017-05-09T03:35:15.849Z,0
2017-05-09T03:36:25.890Z,0
2017-05-09T03:37:36.232Z,0
2017-05-09T03:38:46.622Z,0
2017-05-09T03:39:56.974Z,0
2017-05-09T03:41:07.309Z,0
2017-05-09T03:42:17.667Z,0
2017-05-09T03:43:28.015Z,0
2017-05-09T03:44:38.041Z,0
2017-05-09T03:45:48.390Z,0
2017-05-09T03:46:58.090Z,0
2017-05-09T03:48:08.435Z,0
2017-05-09T03:49:18.463Z,0
2017-05-09T03:50:28.498Z,0
2017-05-09T03:51:38.539Z,0
2017-05-09T03:52:48.597Z,0
2017-05-09T03:53:58.950Z,0
2017-05-09T03:55:09.281Z,0
2017-05-09T03:56:19.640Z,0
2017-05-09T03:57:29.991Z,0
2017-05-09T03:58:40.346Z,0
2017-05-09T03:59:50.694Z,0
2017-05-09T04:01:01.027Z,0
2017-05-09T04:02:11.043Z,0
2017-05-09T04:03:21.390Z,0
2017-05-09T04:04:31.465Z,0
2017-05-09T04:05:41.848Z,0
2017-05-09T04:06:52.197Z,0
2017-05-09T04:08:02.629Z,0
2017-05-09T04:09:12.983Z,0
2017-05-09T04:10:23.017Z,0
2017-05-09T04:11:33.366Z,0
2017-05-09T04:12:43.722Z,0
2017-05-09T04:13:54.059Z,0
2017-05-09T04:15:04.097Z,0
2017-05-09T04:16:14.429Z,0
2017-05-09T04:17:24.459Z,0
2017-05-09T04:18:34.797Z,0
2017-05-09T04:19:44.823Z,5
2017-05-09T04:20:55.183Z,5
2017-05-09T04:22:05.513Z,5
2017-05-09T04:23:15.859Z,5
2017-05-09T04:24:25.899Z,5
2017-05-09T04:25:36.257Z,5
2017-05-09T04:26:46.604Z,5
2017-05-09T04:27:56.989Z,5
2017-05-09T04:29:07.377Z,5
2017-05-09T04:30:17.456Z,5
2017-05-09T04:31:27.802Z,5
2017-05-09T04:32:37.842Z,5
2017-05-09T04:33:47.886Z,5
2017-05-09T04:34:57.921Z,10
2017-05-09T04:36:08.279Z,10
2017-05-09T04:37:18.606Z,10
2017-05-09T04:38:28.649Z,10
2017-05-09T04:39:38.978Z,10
2017-05-09T04:40:49.027Z,10
2017-05-09T04:41:59.371Z,10
2017-05-09T04:43:09.750Z,10
2017-05-09T04:44:20.079Z,10
2017-05-09T04:45:30.105Z,15
2017-05-09T04:46:40.442Z,15
2017-05-09T04:47:50.812Z,15
2017-05-09T04:49:01.158Z,15
2017-05-09T04:50:11.508Z,15
2017-05-09T04:51:21.529Z,20
2017-05-09T04:52:31.252Z,20
2017-05-09T04:53:41.602Z,20
2017-05-09T04:54:51.629Z,25
2017-05-09T04:56:01.985Z,25
2017-05-09T04:57:12.341Z,30
2017-05-09T04:58:22.374Z,25
2017-05-09T04:59:32.744Z,20
2017-05-09T05:00:43.088Z,20
2017-05-09T05:01:53.123Z,20
2017-05-09T05:03:02.856Z,15
2017-05-09T05:04:13.200Z,20
2017-05-09T05:05:23.532Z,20
2017-05-09T05:06:33.900Z,25
2017-05-09T05:07:44.271Z,25
2017-05-09T05:08:54.633Z,25
2017-05-09T05:10:04.346Z,25
2017-05-09T05:11:14.693Z,20
2017-05-09T05:12:25.102Z,20
2017-05-09T05:13:35.444Z,20
2017-05-09T05:14:45.794Z,25
2017-05-09T05:15:56.144Z,25
2017-05-09T05:17:06.507Z,30
2017-05-09T05:18:16.875Z,35
2017-05-09T05:19:27.233Z,40
2017-05-09T05:20:37.578Z,40
2017-05-09T05:21:47.922Z,40
2017-05-09T05:22:57.631Z,40
2017-05-09T05:24:07.672Z,35
2017-05-09T05:25:18.009Z,35
2017-05-09T05:26:28.344Z,35
2017-05-09T05:27:38.677Z,35
2017-05-09T05:28:49.018Z,35
2017-05-09T05:29:59.369Z,40
2017-05-09T05:31:09.709Z,45
2017-05-09T05:32:20.049Z,45
2017-05-09T05:33:30.082Z,45
2017-05-09T05:34:40.414Z,45
2017-05-09T05:35:50.761Z,45
2017-05-09T05:37:01.099Z,45
2017-05-09T05:38:11.447Z,45
2017-05-09T05:39:21.813Z,45
2017-05-09T05:40:32.143Z,45
2017-05-09T05:41:42.508Z,50
2017-05-09T05:42:52.840Z,60
2017-05-09T05:44:03.197Z,75
2017-05-09T05:45:13.542Z,85
2017-05-09T05:46:23.883Z,95
2017-05-09T05:47:34.232Z,95
2017-05-09T05:48:44.569Z,95
2017-05-09T05:49:54.604Z,85
2017-05-09T05:51:04.618Z,60
2017-05-09T05:52:14.970Z,40
2017-05-09T05:53:24.699Z,25
2017-05-09T05:54:35.038Z,20
2017-05-09T05:55:45.404Z,20
2017-05-09T05:56:55.790Z,20
2017-05-09T05:58:06.133Z,25
2017-05-09T05:59:16.475Z,30
2017-05-09T06:00:26.193Z,35
2017-05-09T06:01:36.507Z,40
2017-05-09T06:02:46.544Z,45
2017-05-09T06:03:56.581Z,50
2017-05-09T06:05:06.630Z,55
2017-05-09T06:06:16.993Z,65
2017-05-09T06:07:27.326Z,65
2017-05-09T06:08:37.349Z,65
2017-05-09T06:09:47.710Z,60
2017-05-09T06:10:58.057Z,60
2017-05-09T06:12:08.404Z,70
2017-05-09T06:13:18.750Z,80
2017-05-09T06:14:28.794Z,85
2017-05-09T06:15:38.195Z,95
2017-05-09T06:16:48.521Z,110
2017-05-09T06:17:58.554Z,120
2017-05-09T06:19:08.594Z,125
2017-05-09T06:20:18.924Z,130
2017-05-09T06:21:29.277Z,140
2017-05-09T06:22:39.323Z,150
2017-05-09T06:23:49.689Z,135
2017-05-09T06:25:00.057Z,120
2017-05-09T06:26:10.457Z,120
2017-05-09T06:27:20.796Z,125
2017-05-09T06:28:31.162Z,125
2017-05-09T06:29:41.195Z,120
2017-05-09T06:30:51.261Z,125
2017-05-09T06:32:01.612Z,130
2017-05-09T06:38:33.604Z,190
2017-05-09T06:39:43.657Z,200
2017-05-09T06:40:53.720Z,180
2017-05-09T06:42:04.076Z,155
2017-05-09T06:43:14.122Z,145
2017-05-09T06:44:24.467Z,135
2017-05-09T06:45:34.803Z,115
2017-05-09T06:46:45.162Z,115
2017-05-09T06:47:55.510Z,110
2017-05-09T06:49:05.546Z,110
2017-05-09T06:50:15.587Z,100
2017-05-09T06:51:25.928Z,100
2017-05-09T06:52:36.286Z,95
2017-05-09T06:53:46.618Z,90
2017-05-09T06:54:56.970Z,80
2017-05-09T06:56:07.013Z,80
2017-05-09T06:57:17.359Z,80
2017-05-09T06:58:27.709Z,95
2017-05-09T06:59:38.070Z,120
2017-05-09T07:00:48.120Z,115
2017-05-09T07:01:58.473Z,120
2017-05-09T07:03:08.820Z,120
2017-05-09T07:04:19.181Z,120
2017-05-09T07:05:29.523Z,115
2017-05-09T07:06:39.870Z,110
2017-05-09T07:07:49.948Z,100
2017-05-09T07:08:59.997Z,95
2017-05-09T07:10:10.031Z,85
2017-05-09T07:11:20.393Z,80
2017-05-09T07:12:30.108Z,85
2017-05-09T07:13:40.147Z,80
2017-05-09T07:14:50.529Z,75
2017-05-09T07:16:00.582Z,70
2017-05-09T07:17:10.927Z,70
2017-05-09T07:18:20.640Z,65
2017-05-09T07:19:31.014Z,65
2017-05-09T07:20:41.354Z,60
2017-05-09T07:21:51.388Z,70
2017-05-09T07:23:01.756Z,70
2017-05-09T07:24:12.105Z,60
2017-05-09T07:25:22.517Z,60
2017-05-09T07:26:32.858Z,60
2017-05-09T07:27:43.214Z,55
2017-05-09T07:28:53.559Z,55
2017-05-09T07:30:03.610Z,60
2017-05-09T07:31:13.330Z,55
2017-05-09T07:32:23.394Z,50
2017-05-09T07:33:33.427Z,50
2017-05-09T07:34:43.451Z,50
2017-05-09T07:35:53.493Z,50
2017-05-09T07:37:03.889Z,45
2017-05-09T07:38:13.924Z,45
2017-05-09T07:39:23.971Z,50
2017-05-09T07:40:33.680Z,50
2017-05-09T07:41:44.033Z,55
2017-05-09T07:42:54.375Z,50
2017-05-09T07:44:04.719Z,50
2017-05-09T07:45:15.065Z,55
2017-05-09T07:46:25.420Z,75
2017-05-09T07:47:35.154Z,85
2017-05-09T07:48:45.188Z,90
2017-05-09T07:49:55.256Z,90
2017-05-09T07:51:05.609Z,90
2017-05-09T07:52:15.951Z,90
2017-05-09T07:53:26.294Z,75
2017-05-09T07:54:36.636Z,70
2017-05-09T07:55:46.660Z,70
2017-05-09T07:56:57.024Z,55
2017-05-09T07:58:07.061Z,55
2017-05-09T07:59:17.419Z,60
2017-05-09T08:00:27.497Z,65
2017-05-09T08:01:37.837Z,70
2017-05-09T08:02:48.189Z,90
2017-05-09T08:03:58.533Z,105
2017-05-09T08:05:08.894Z,105
2017-05-09T08:06:18.929Z,80
2017-05-09T08:07:29.304Z,75
2017-05-09T08:08:39.643Z,75
2017-05-09T08:09:49.996Z,65
2017-05-09T08:11:00.346Z,65
2017-05-09T08:12:10.425Z,65
2017-05-09T08:13:20.465Z,65
2017-05-09T08:14:30.522Z,65
2017-05-09T08:15:40.536Z,65
2017-05-09T08:16:50.570Z,70
2017-05-09T08:18:00.920Z,75
2017-05-09T08:19:11.262Z,75
2017-05-09T08:20:21.299Z,70
2017-05-09T08:21:30.712Z,80
2017-05-09T08:22:40.763Z,85
2017-05-09T08:23:51.114Z,85
2017-05-09T08:25:01.192Z,85
2017-05-09T08:26:11.222Z,95
2017-05-09T08:27:21.574Z,110
2017-05-09T08:28:31.619Z,110
2017-05-09T08:29:41.664Z,105
2017-05-09T08:30:52.005Z,105
2017-05-09T08:32:02.362Z,110
2017-05-09T08:33:12.407Z,110
2017-05-09T08:34:22.447Z,115
2017-05-09T08:35:32.529Z,125
2017-05-09T08:36:42.865Z,145
2017-05-09T08:37:53.203Z,165
2017-05-09T08:39:03.542Z,180
2017-05-09T08:40:13.925Z,190
2017-05-09T08:41:24.268Z,205
2017-05-09T08:42:34.653Z,205
2017-05-09T08:43:45.009Z,225
2017-05-09T08:44:55.393Z,270
2017-05-09T08:46:05.742Z,265
2017-05-09T08:47:16.114Z,235
2017-05-09T08:48:26.155Z,220
2017-05-09T08:49:36.493Z,220
2017-05-09T08:50:46.540Z,220
2017-05-09T08:51:56.901Z,210
2017-05-09T08:53:07.250Z,200
2017-05-09T08:54:17.596Z,205
2017-05-09T08:55:27.951Z,225
2017-05-09T08:56:38.290Z,230
2017-05-09T08:57:48.337Z,225
2017-05-09T08:58:58.677Z,210
2017-05-09T09:00:08.716Z,195
2017-05-09T09:01:18.756Z,160
2017-05-09T09:02:29.113Z,135
2017-05-09T09:03:39.161Z,135
2017-05-09T09:04:49.768Z,155
2017-05-09T09:06:00.107Z,180
2017-05-09T09:07:10.141Z,180
2017-05-09T09:08:20.185Z,170
2017-05-09T09:09:30.534Z,150
2017-05-09T09:10:40.890Z,145
2017-05-09T09:11:50.924Z,140
2017-05-09T09:13:01.270Z,125
2017-05-09T09:14:11.611Z,115
2017-05-09T09:15:21.635Z,100
2017-05-09T09:16:31.994Z,100
2017-05-09T09:17:42.374Z,95
2017-05-09T09:18:52.753Z,90
2017-05-09T09:20:03.098Z,90
2017-05-09T09:21:12.838Z,95
2017-05-09T09:22:23.186Z,95
2017-05-09T09:23:33.550Z,90
2017-05-09T09:24:43.606Z,90
2017-05-09T09:25:53.361Z,90
2017-05-09T09:27:03.720Z,90
2017-05-09T09:28:14.074Z,85
2017-05-09T09:29:24.418Z,75
2017-05-09T09:30:34.764Z,80
2017-05-09T09:31:44.815Z,75
2017-05-09T09:32:55.167Z,65
2017-05-09T09:34:05.529Z,65
2017-05-09T09:35:15.891Z,70
2017-05-09T09:36:25.938Z,80
2017-05-09T09:37:36.300Z,80
2017-05-09T09:38:46.645Z,80
2017-05-09T09:39:56.737Z,90
2017-05-09T09:41:06.470Z,100
2017-05-09T09:42:16.833Z,105
2017-05-09T09:43:26.873Z,95
2017-05-09T09:44:37.244Z,90
2017-05-09T09:45:47.601Z,85
2017-05-09T09:46:57.648Z,80
2017-05-09T09:48:08.056Z,75
2017-05-09T09:49:18.397Z,75
2017-05-09T09:50:28.437Z,70
2017-05-09T09:51:38.793Z,65
2017-05-09T09:52:49.128Z,65
2017-05-09T09:53:59.173Z,65
2017-05-09T09:55:09.226Z,60
2017-05-09T09:56:19.575Z,60
2017-05-09T09:57:29.948Z,60
2017-05-09T09:58:40.017Z,60
2017-05-09T09:59:50.043Z,60
2017-05-09T10:01:00.100Z,60
2017-05-09T10:02:10.445Z,60
2017-05-09T10:03:20.816Z,55
2017-05-09T10:04:31.170Z,60
2017-05-09T10:05:41.217Z,60
2017-05-09T10:06:51.595Z,60
2017-05-09T10:08:01.635Z,65
2017-05-09T10:09:11.980Z,75
2017-05-09T10:10:22.032Z,80
2017-05-09T10:11:32.107Z,80
2017-05-09T10:12:42.148Z,85
2017-05-09T10:13:52.178Z,90
2017-05-09T10:15:02.217Z,100
2017-05-09T10:16:12.249Z,115
2017-05-09T10:17:22.281Z,120
2017-05-09T10:18:32.643Z,125
2017-05-09T10:19:43.005Z,130
2017-05-09T10:20:53.050Z,130
2017-05-09T10:22:03.089Z,140
2017-05-09T10:23:13.451Z,145
2017-05-09T10:24:22.883Z,150
2017-05-09T10:25:32.925Z,155
2017-05-09T10:26:43.301Z,160
2017-05-09T10:27:53.683Z,175
2017-05-09T10:29:03.422Z,180
2017-05-09T10:30:13.773Z,195
2017-05-09T10:31:24.153Z,200
2017-05-09T10:32:34.225Z,210
2017-05-09T10:33:44.582Z,225
2017-05-09T10:34:54.624Z,235
2017-05-09T10:36:04.683Z,225
2017-05-09T10:37:14.718Z,215
2017-05-09T10:38:25.084Z,190
2017-05-09T10:39:35.439Z,180
2017-05-09T10:40:45.822Z,170
2017-05-09T10:41:56.189Z,165
2017-05-09T10:43:06.227Z,175
2017-05-09T10:44:16.268Z,195
2017-05-09T10:45:26.645Z,195
2017-05-09T10:46:36.986Z,195
2017-05-09T10:47:47.330Z,185
2017-05-09T10:48:57.370Z,175
2017-05-09T10:50:07.406Z,175
2017-05-09T10:51:17.753Z,200
2017-05-09T10:52:28.102Z,230
2017-05-09T10:53:38.144Z,275
2017-05-09T10:54:48.492Z,295
2017-05-09T10:55:58.567Z,300
2017-05-09T10:57:08.281Z,290
2017-05-09T10:58:17.705Z,260
2017-05-09T10:59:28.067Z,225
2017-05-09T11:00:38.428Z,190
2017-05-09T11:01:48.763Z,155
2017-05-09T11:02:59.126Z,130
2017-05-09T11:04:09.173Z,115
2017-05-09T11:05:19.207Z,90
2017-05-09T11:06:29.241Z,80
2017-05-09T11:07:38.979Z,75
2017-05-09T11:08:49.334Z,75
2017-05-09T11:09:59.686Z,75
2017-05-09T11:11:10.023Z,70
2017-05-09T11:12:20.054Z,65
2017-05-09T11:13:29.780Z,60
2017-05-09T11:14:40.122Z,60
2017-05-09T11:15:50.173Z,65
2017-05-09T11:17:00.214Z,75
2017-05-09T11:18:10.238Z,90
2017-05-09T11:19:20.613Z,120
2017-05-09T11:20:30.961Z,145
2017-05-09T11:21:41.299Z,200
2017-05-09T11:22:51.661Z,275
2017-05-09T11:24:02.022Z,325
2017-05-09T11:25:12.058Z,345
2017-05-09T11:26:22.420Z,325
2017-05-09T11:27:32.786Z,290
2017-05-09T11:28:42.836Z,240
2017-05-09T11:29:52.577Z,205
2017-05-09T11:31:02.617Z,180
2017-05-09T11:32:13.041Z,160
2017-05-09T11:33:23.412Z,150
2017-05-09T11:34:33.774Z,140
2017-05-09T11:35:43.820Z,125
2017-05-09T11:36:54.172Z,120
2017-05-09T11:38:04.528Z,105
2017-05-09T11:39:14.920Z,85
2017-05-09T11:40:24.967Z,70
2017-05-09T11:41:35.021Z,55
2017-05-09T11:42:45.373Z,50
2017-05-09T11:43:55.715Z,45
2017-05-09T11:45:06.058Z,45
2017-05-09T11:46:16.458Z,55
2017-05-09T11:47:26.796Z,60
2017-05-09T11:48:36.830Z,75
2017-05-09T11:49:47.194Z,85
2017-05-09T11:50:57.564Z,90
2017-05-09T11:52:07.587Z,100
2017-05-09T11:53:17.939Z,115
2017-05-09T11:54:28.289Z,130
2017-05-09T11:55:38.339Z,150
2017-05-09T11:56:48.710Z,165
2017-05-09T11:57:58.447Z,180
2017-05-09T11:59:08.512Z,200
2017-05-09T12:00:18.571Z,210
2017-05-09T12:01:28.645Z,230
2017-05-09T12:02:38.996Z,255
2017-05-09T12:03:49.030Z,275
2017-05-09T12:04:59.397Z,295
2017-05-09T12:06:09.760Z,295
2017-05-09T12:07:20.141Z,295
2017-05-09T12:08:30.502Z,295
2017-05-09T12:09:40.867Z,320
2017-05-09T12:10:50.892Z,340
2017-05-09T12:12:01.228Z,340
2017-05-09T12:13:11.595Z,320
2017-05-09T12:14:21.665Z,335
2017-05-09T12:15:31.696Z,410
2017-05-09T12:16:41.733Z,355
2017-05-09T12:17:51.798Z,350
2017-05-09T12:19:01.517Z,420
2017-05-09T12:20:11.604Z,330
2017-05-09T12:21:21.956Z,420
2017-05-09T12:22:32.313Z,365
2017-05-09T12:23:42.656Z,280
2017-05-09T12:24:52.388Z,245
2017-05-09T12:26:02.769Z,205
2017-05-09T12:27:12.524Z,190
2017-05-09T12:28:22.586Z,190
2017-05-09T12:29:32.334Z,195
2017-05-09T12:30:42.698Z,200
2017-05-09T12:31:53.048Z,195
2017-05-09T12:33:03.083Z,190
2017-05-09T12:34:13.459Z,190
2017-05-09T12:35:23.516Z,190
2017-05-09T12:36:33.867Z,195
2017-05-09T12:37:44.241Z,205
2017-05-09T12:38:54.642Z,220
2017-05-09T12:40:04.369Z,225
2017-05-09T12:41:14.398Z,225
2017-05-09T12:42:24.437Z,220
2017-05-09T12:43:34.479Z,205
2017-05-09T12:44:44.821Z,170
2017-05-09T12:45:55.192Z,140
2017-05-09T12:47:05.546Z,115
2017-05-09T12:48:15.902Z,105
2017-05-09T12:49:26.275Z,105
2017-05-09T12:50:36.651Z,105
2017-05-09T12:51:46.690Z,115
2017-05-09T12:52:56.482Z,125
2017-05-09T12:54:06.838Z,145
2017-05-09T12:55:17.192Z,170
2017-05-09T12:56:26.919Z,195
2017-05-09T12:57:37.284Z,225
2017-05-09T12:58:47.326Z,250
2017-05-09T13:00:01.122Z,285
2017-05-09T13:01:11.529Z,305
2017-05-09T13:02:21.898Z,345
2017-05-09T13:03:31.724Z,370
2017-05-09T13:04:42.326Z,375
2017-05-09T13:05:52.702Z,370
2017-05-09T13:07:02.747Z,340
2017-05-09T13:08:13.117Z,360
2017-05-09T13:09:23.796Z,315
2017-05-09T13:10:34.159Z,280
2017-05-09T13:11:44.520Z,285
2017-05-09T13:12:54.558Z,225
2017-05-09T13:14:04.603Z,210
2017-05-09T13:15:14.952Z,210
2017-05-09T13:16:25.295Z,230
2017-05-09T13:17:35.650Z,240
2017-05-09T13:18:45.741Z,250
2017-05-09T13:19:56.098Z,245
2017-05-09T13:21:05.810Z,245
2017-05-09T13:22:15.848Z,250
2017-05-09T13:23:26.201Z,260
2017-05-09T13:24:36.601Z,270
2017-05-09T13:25:46.954Z,275
2017-05-09T13:26:57.317Z,295
2017-05-09T13:28:07.670Z,285
2017-05-09T13:29:18.025Z,285
2017-05-09T13:30:28.065Z,310
2017-05-09T13:31:38.110Z,290
2017-05-09T13:32:48.462Z,305
2017-05-09T13:33:58.849Z,340
2017-05-09T13:35:09.216Z,335
2017-05-09T13:36:19.301Z,330
2017-05-09T13:37:29.345Z,340
2017-05-09T13:38:39.691Z,305
2017-05-09T13:39:49.803Z,295
2017-05-09T13:41:00.149Z,285
2017-05-09T13:42:10.501Z,290
2017-05-09T13:43:20.548Z,305
2017-05-09T13:44:30.893Z,280
2017-05-09T13:45:41.240Z,275
2017-05-09T13:46:51.594Z,270
2017-05-09T13:48:01.951Z,265
2017-05-09T13:49:12.302Z,270
2017-05-09T13:50:22.333Z,275
2017-05-09T13:51:32.680Z,270
2017-05-09T13:52:42.786Z,275
2017-05-09T13:53:53.152Z,280
2017-05-09T13:55:03.515Z,275
2017-05-09T13:56:13.873Z,275
2017-05-09T13:57:23.910Z,270
2017-05-09T13:58:33.950Z,255
2017-05-09T13:59:44.317Z,235
2017-05-09T14:00:54.345Z,225
2017-05-09T14:02:04.706Z,225
2017-05-09T14:03:14.747Z,235
2017-05-09T14:04:25.108Z,255
2017-05-09T14:05:35.506Z,275
2017-05-09T14:06:45.551Z,280
2017-05-09T14:07:55.929Z,285
2017-05-09T14:09:06.274Z,295
2017-05-09T14:10:16.660Z,300
2017-05-09T14:11:26.996Z,315
2017-05-09T14:12:37.370Z,345
2017-05-09T14:13:47.736Z,330
2017-05-09T14:14:58.045Z,320
2017-05-09T14:16:08.409Z,315
2017-05-09T14:17:18.768Z,310
2017-05-09T14:18:28.820Z,305
2017-05-09T14:19:39.222Z,290
2017-05-09T14:20:49.276Z,290
2017-05-09T14:21:59.654Z,285
2017-05-09T14:23:10.007Z,285
2017-05-09T14:24:20.457Z,290
2017-05-09T14:25:30.820Z,280
2017-05-09T14:26:40.851Z,280
2017-05-09T14:27:50.923Z,280
2017-05-09T14:29:00.961Z,275
2017-05-09T14:30:11.320Z,285
2017-05-09T14:31:21.682Z,285
2017-05-09T14:32:31.759Z,295
2017-05-09T14:33:42.113Z,285
2017-05-09T14:34:52.184Z,270
2017-05-09T14:36:02.252Z,260
2017-05-09T14:37:12.296Z,255
2017-05-09T14:38:22.343Z,245
2017-05-09T14:39:32.716Z,235
2017-05-09T14:40:43.073Z,235
2017-05-09T14:41:53.120Z,225
2017-05-09T14:43:03.215Z,225
2017-05-09T14:44:13.573Z,220
2017-05-09T14:45:23.954Z,220
2017-05-09T14:46:34.339Z,230
2017-05-09T14:47:44.715Z,225
2017-05-09T14:48:55.096Z,220
2017-05-09T14:50:05.549Z,220
2017-05-09T14:51:15.952Z,225
2017-05-09T14:52:26.343Z,230
2017-05-09T14:53:36.734Z,220
2017-05-09T14:54:47.143Z,215
2017-05-09T14:55:57.542Z,200
2017-05-09T14:57:07.944Z,190
2017-05-09T14:58:18.343Z,180
2017-05-09T14:59:28.786Z,185
2017-05-09T15:00:38.845Z,185
2017-05-09T15:01:49.191Z,190
2017-05-09T15:02:59.242Z,190
2017-05-09T15:04:09.300Z,185
2017-05-09T15:05:19.034Z,185
2017-05-09T15:06:29.419Z,190
2017-05-09T15:07:39.792Z,190
2017-05-09T15:08:49.842Z,190
2017-05-09T15:10:00.216Z,190
2017-05-09T15:11:10.575Z,190
2017-05-09T15:12:20.938Z,190
2017-05-09T15:13:31.285Z,195
2017-05-09T15:14:41.326Z,190
2017-05-09T15:15:51.075Z,195
2017-05-09T15:17:01.111Z,200
2017-05-09T15:18:10.888Z,210
2017-05-09T15:19:21.305Z,220
2017-05-09T15:20:31.356Z,220
2017-05-09T15:21:41.725Z,210
2017-05-09T15:22:51.783Z,200
2017-05-09T15:24:02.148Z,200
2017-05-09T15:25:12.508Z,195
2017-05-09T15:26:22.863Z,185
2017-05-09T15:27:33.227Z,190
2017-05-09T15:28:43.595Z,190
2017-05-09T15:29:53.975Z,190
2017-05-09T15:31:04.324Z,195
2017-05-09T15:32:14.393Z,205
2017-05-09T15:33:24.475Z,190
2017-05-09T15:34:34.831Z,185
2017-05-09T15:35:44.588Z,180
2017-05-09T15:36:54.943Z,185
2017-05-09T15:38:05.317Z,185
2017-05-09T15:39:15.690Z,190
2017-05-09T15:40:26.054Z,205
2017-05-09T15:41:36.415Z,215
2017-05-09T15:42:46.792Z,245
2017-05-09T15:43:57.144Z,240
2017-05-09T15:45:06.883Z,235
2017-05-09T15:46:16.923Z,220
2017-05-09T15:47:27.298Z,155
2017-05-09T15:48:37.362Z,145
2017-05-09T15:49:47.733Z,140
2017-05-09T15:50:57.783Z,155
2017-05-09T15:52:07.824Z,160
2017-05-09T15:53:18.192Z,140
2017-05-09T15:54:28.547Z,140
2017-05-09T15:55:38.952Z,135
2017-05-09T15:56:49.320Z,135
2017-05-09T15:57:59.701Z,130
2017-05-09T15:59:09.750Z,130
2017-05-09T16:00:20.119Z,125
2017-05-09T16:01:30.471Z,125
2017-05-09T16:02:40.833Z,120
2017-05-09T16:03:51.186Z,120
2017-05-09T16:05:01.229Z,115
2017-05-09T16:06:11.595Z,110
2017-05-09T16:07:21.961Z,110
2017-05-09T16:08:32.307Z,105
2017-05-09T16:09:42.684Z,100
2017-05-09T16:10:53.055Z,95
2017-05-09T16:12:03.460Z,95
2017-05-09T16:13:13.867Z,95
2017-05-09T16:14:23.964Z,95
2017-05-09T16:15:34.356Z,100
2017-05-09T16:16:44.726Z,90
2017-05-09T16:17:55.134Z,90
2017-05-09T16:19:05.503Z,90
2017-05-09T16:20:15.920Z,90
2017-05-09T16:21:26.287Z,90
2017-05-09T16:22:36.684Z,90
2017-05-09T16:23:47.040Z,95
2017-05-09T16:24:57.427Z,95
2017-05-09T16:26:07.483Z,95
2017-05-09T16:27:17.840Z,90
2017-05-09T16:28:28.215Z,85
2017-05-09T16:29:38.583Z,80
2017-05-09T16:30:48.981Z,80
2017-05-09T16:31:59.034Z,80
2017-05-09T16:33:09.104Z,75
2017-05-09T16:34:19.481Z,75
2017-05-09T16:35:29.847Z,75
2017-05-09T16:36:39.910Z,75
2017-05-09T16:37:50.270Z,75
2017-05-09T16:39:00.663Z,70
2017-05-09T16:40:11.061Z,70
2017-05-09T16:41:21.419Z,65
2017-05-09T16:42:31.839Z,65
2017-05-09T16:43:42.211Z,65
2017-05-09T16:44:52.257Z,65
2017-05-09T16:46:02.317Z,65
2017-05-09T16:47:12.670Z,65
2017-05-09T16:48:23.042Z,70
2017-05-09T16:49:33.171Z,70
2017-05-09T16:50:43.561Z,75
2017-05-09T16:51:53.581Z,80
2017-05-09T16:53:03.947Z,80
2017-05-09T16:54:14.326Z,80
2017-05-09T16:55:24.692Z,80
2017-05-09T16:56:34.761Z,85
2017-05-09T16:57:44.810Z,85
2017-05-09T16:58:55.198Z,85
2017-05-09T17:00:05.584Z,80
2017-05-09T17:01:15.631Z,80
2017-05-09T17:02:25.975Z,80
2017-05-09T17:03:36.383Z,80
2017-05-09T17:04:46.748Z,80
2017-05-09T17:05:57.128Z,80
2017-05-09T17:07:07.486Z,75
2017-05-09T17:08:17.873Z,75
2017-05-09T17:09:28.252Z,70
2017-05-09T17:10:38.323Z,65